Terminal Aerodrome Forecast
Issued by NWS

Home | Current Version | Previous Version | Graphics & Text | Print | Product List | Glossary On
Versions: 1 2 3 4 5 6 7 8 9 10 11 12 13 14 15 16 17
000
FTUS43 KICT 261142
TAFHUT
TAF
KHUT 261142Z 2612/2712 05005KT P6SM FEW009 SCT015
      TEMPO 2612/2614 4SM BR SCT009 BKN015
     FM261600 09007KT P6SM SCT040
     FM270000 12005KT P6SM SCT250=

USA.gov is the U.S. government's official web portal to all federal, state and local government web resources and services.